Time;durP1;ratioP1;P1;durP2;ratioP2;P2;SDS_P1;SDS_P2;PMS_P1;PMS_P2;Temp;Humidity;BMP_temperature;BMP_pressure;BME280_temperature;BME280_humidity;BME280_pressure;Samples;Min_cycle;Max_cycle;Signal;HPM_P1;HPM_P2
2022/05/23 00:02:20;;;;;;;;;5.25;5.00;;;;;20.90;56.29;100248.25;5060271;28;45970;-57
2022/05/23 00:04:47;;;;;;;;;6.75;5.00;;;;;20.91;56.21;100266.81;5060301;28;45307;-57
2022/05/23 00:07:37;;;;;;;;;7.75;6.25;;;;;20.93;56.20;100266.63;5060751;28;45133;-57
2022/05/23 00:10:06;;;;;;;;;8.00;7.25;;;;;20.94;56.05;100262.16;5057789;28;45385;-61
2022/05/23 00:12:31;;;;;;;;;7.25;6.75;;;;;20.95;56.08;100250.41;5060134;28;46159;-58
2022/05/23 00:14:57;;;;;;;;;7.50;7.50;;;;;20.96;55.85;100252.09;5060430;28;45287;-58
2022/05/23 00:17:23;;;;;;;;;8.00;6.75;;;;;20.96;56.00;100268.16;5060789;28;45395;-58
2022/05/23 00:19:49;;;;;;;;;6.75;6.75;;;;;20.97;56.63;100269.81;5061232;28;45642;-59
2022/05/23 00:22:16;;;;;;;;;6.00;5.25;;;;;20.98;56.13;100264.28;5063380;28;45496;-59
2022/05/23 00:24:42;;;;;;;;;6.50;6.25;;;;;21.00;55.96;100256.91;5058574;28;45492;-60
2022/05/23 00:27:10;;;;;;;;;8.25;5.00;;;;;20.97;55.66;100251.91;5067564;28;45531;-59
2022/05/23 00:29:36;;;;;;;;;5.75;5.75;;;;;20.98;55.76;100242.88;5071208;28;45500;-58
2022/05/23 00:37:30;;;;;;;;;4.00;4.00;;;;;20.97;55.88;100221.63;5063969;28;45425;-59
2022/05/23 00:39:56;;;;;;;;;7.00;4.25;;;;;20.98;55.99;100215.25;5064061;28;45596;-59
2022/05/23 00:45:14;;;;;;;;;4.50;4.00;;;;;20.96;56.38;100206.56;5064144;28;45314;-60
2022/05/23 00:47:40;;;;;;;;;4.50;3.50;;;;;20.96;56.24;100202.03;5062530;28;45193;-59
2022/05/23 00:50:07;;;;;;;;;4.75;4.75;;;;;20.95;56.15;100197.69;5063728;28;46091;-59
2022/05/23 00:52:38;;;;;;;;;5.25;4.50;;;;;20.97;56.08;100192.16;5063424;28;45290;-59
2022/05/23 00:55:08;;;;;;;;;4.50;4.50;;;;;20.95;56.10;100196.88;5063440;28;45340;-60
2022/05/23 00:57:40;;;;;;;;;4.50;4.50;;;;;20.94;56.23;100188.00;5063715;28;45297;-59
2022/05/23 01:00:07;;;;;;;;;4.75;4.75;;;;;20.91;56.12;100189.16;5063707;28;45162;-59
2022/05/23 01:02:36;;;;;;;;;4.00;4.00;;;;;20.92;56.18;100190.81;5063548;28;45370;-59
2022/05/23 01:05:03;;;;;;;;;6.75;6.00;;;;;20.90;56.40;100186.66;5063281;28;45350;-59
2022/05/23 01:07:28;;;;;;;;;6.00;6.00;;;;;20.89;56.47;100172.44;5063784;28;45369;-60
2022/05/23 01:09:54;;;;;;;;;6.25;5.50;;;;;20.87;56.34;100174.47;5063430;28;45320;-59
2022/05/23 01:12:20;;;;;;;;;4.50;3.50;;;;;20.87;56.33;100162.91;5063518;28;46169;-59
2022/05/23 01:14:47;;;;;;;;;5.50;4.50;;;;;20.85;56.26;100165.78;5063445;28;45241;-59
2022/05/23 01:17:12;;;;;;;;;5.50;5.50;;;;;20.84;56.50;100153.38;5063509;28;45242;-59
2022/05/23 01:19:38;;;;;;;;;5.25;4.75;;;;;20.84;56.53;100139.16;5063443;28;45532;-59
2022/05/23 01:22:17;;;;;;;;;4.50;4.50;;;;;20.84;56.67;100134.63;5063338;28;46618;-59
2022/05/23 01:25:11;;;;;;;;;4.00;4.00;;;;;20.81;56.62;100132.31;5061910;28;45435;-59
2022/05/23 01:27:39;;;;;;;;;5.25;4.00;;;;;20.79;56.58;100123.63;5063513;28;45367;-59
2022/05/23 01:30:05;;;;;;;;;7.00;5.25;;;;;20.77;57.06;100119.41;5063265;28;45295;-59
2022/05/23 01:32:31;;;;;;;;;5.75;5.75;;;;;20.71;56.90;100107.59;5063016;28;45355;-59
2022/05/23 01:34:56;;;;;;;;;5.50;5.50;;;;;20.68;57.12;100101.72;5063312;28;45237;-59
2022/05/23 01:37:22;;;;;;;;;4.00;4.00;;;;;20.63;57.14;100092.38;5063146;28;45257;-59
2022/05/23 01:39:47;;;;;;;;;5.25;5.25;;;;;20.61;57.16;100088.19;5063373;28;45579;-59
2022/05/23 01:42:13;;;;;;;;;2.75;2.75;;;;;20.58;57.24;100078.66;5062755;28;46150;-59
2022/05/23 01:44:38;;;;;;;;;6.00;6.00;;;;;20.55;57.16;100078.19;5062994;28;45382;-59
2022/05/23 01:47:13;;;;;;;;;5.25;4.50;;;;;20.53;57.35;100080.19;5063173;28;45225;-60
2022/05/23 01:49:41;;;;;;;;;6.50;4.25;;;;;20.49;57.41;100063.66;5063195;28;45216;-59
2022/05/23 01:52:08;;;;;;;;;6.50;5.75;;;;;20.47;57.77;100052.28;5062457;28;46361;-60
2022/05/23 01:54:37;;;;;;;;;4.50;4.50;;;;;20.45;57.52;100038.22;5062772;28;45385;-58
2022/05/23 01:57:04;;;;;;;;;5.75;4.25;;;;;20.43;57.51;100036.72;5062687;28;45316;-59
2022/05/23 02:02:15;;;;;;;;;8.00;6.25;;;;;20.41;57.60;100025.34;5062640;28;45442;-59
2022/05/23 02:04:41;;;;;;;;;5.25;5.00;;;;;20.40;58.12;100040.56;5062692;28;45387;-59
2022/05/23 02:07:07;;;;;;;;;5.00;5.00;;;;;20.41;57.94;100041.41;5062534;28;45303;-59
2022/05/23 02:09:34;;;;;;;;;6.50;5.75;;;;;20.40;57.80;100029.88;5062833;28;45453;-59
2022/05/23 02:12:00;;;;;;;;;5.25;5.25;;;;;20.39;57.74;100024.69;5062243;28;45536;-59
2022/05/23 02:14:25;;;;;;;;;7.75;5.00;;;;;20.37;57.70;100024.84;5062493;28;45326;-59
2022/05/23 02:16:51;;;;;;;;;4.50;4.50;;;;;20.35;57.89;100022.34;5062600;28;45294;-59
2022/05/23 02:19:17;;;;;;;;;5.00;4.00;;;;;20.35;58.21;100030.38;5062769;28;45319;-59
2022/05/23 02:21:42;;;;;;;;;5.25;4.25;;;;;20.35;57.90;100035.72;5062134;28;45320;-59
2022/05/23 02:24:08;;;;;;;;;5.00;4.00;;;;;20.34;58.42;100043.91;5062535;28;45221;-59
2022/05/23 02:26:34;;;;;;;;;9.50;5.25;;;;;20.31;58.39;100045.09;5062458;28;45209;-59
2022/05/23 02:29:01;;;;;;;;;4.25;4.25;;;;;20.32;58.76;100057.47;5062518;28;45445;-59
2022/05/23 02:31:28;;;;;;;;;6.75;5.25;;;;;20.32;58.44;100045.94;5062040;28;45450;-59
2022/05/23 02:33:54;;;;;;;;;6.00;6.00;;;;;20.33;57.96;100051.13;5063134;28;45325;-59
2022/05/23 02:36:19;;;;;;;;;4.75;4.00;;;;;20.33;58.22;100048.44;5061947;28;45461;-59
2022/05/23 02:38:44;;;;;;;;;5.25;4.50;;;;;20.35;58.31;100057.13;5062267;28;45406;-59
2022/05/23 02:41:10;;;;;;;;;4.50;4.50;;;;;20.32;58.45;100062.00;5061913;28;46253;-59
2022/05/23 02:43:35;;;;;;;;;4.75;3.25;;;;;20.29;58.52;100055.13;5061971;28;45346;-59
2022/05/23 02:46:01;;;;;;;;;6.75;4.50;;;;;20.30;58.42;100045.25;5062212;28;45363;-59
2022/05/23 02:48:26;;;;;;;;;4.00;4.00;;;;;20.28;58.37;100047.28;5062209;28;45528;-59
2022/05/23 02:50:52;;;;;;;;;5.00;4.00;;;;;20.26;58.83;100055.47;5061617;28;46196;-59
2022/05/23 02:53:17;;;;;;;;;3.50;3.50;;;;;20.25;58.77;100055.66;5061763;28;45303;-59
2022/05/23 02:55:43;;;;;;;;;8.00;5.75;;;;;20.24;58.98;100054.81;5061875;28;45310;-59
2022/05/23 02:58:08;;;;;;;;;4.00;4.00;;;;;20.22;58.89;100056.84;5062235;28;45229;-59
2022/05/23 03:00:35;;;;;;;;;5.50;5.50;;;;;20.20;59.18;100053.47;5061784;28;45338;-59
2022/05/23 03:03:04;;;;;;;;;5.00;5.00;;;;;20.15;59.24;100047.81;5061807;28;45393;-59
2022/05/23 03:05:32;;;;;;;;;4.00;4.00;;;;;20.12;59.03;100058.00;5061484;28;45675;-58
2022/05/23 03:07:58;;;;;;;;;5.25;4.75;;;;;20.11;59.11;100057.16;5061781;28;45275;-58
2022/05/23 03:10:24;;;;;;;;;5.50;3.75;;;;;20.10;59.02;100049.31;5061433;28;45265;-59
2022/05/23 03:12:51;;;;;;;;;13.50;9.50;;;;;20.13;58.86;100043.63;5061663;28;45422;-58
2022/05/23 03:15:16;;;;;;;;;29.25;26.50;;;;;20.16;58.91;100059.34;5061488;28;45363;-58
2022/05/23 03:17:41;;;;;;;;;18.50;16.50;;;;;20.19;59.08;100059.81;5061510;28;45542;-58
2022/05/23 03:20:09;;;;;;;;;21.00;18.75;;;;;20.21;59.22;100065.84;5061213;28;46158;-59
2022/05/23 03:28:03;;;;;;;;;9.50;9.50;;;;;20.26;58.72;100057.31;5060975;28;45308;-59
2022/05/23 03:30:29;;;;;;;;;11.75;10.00;;;;;20.28;58.89;100052.63;5061146;28;45289;-59
2022/05/23 03:32:57;;;;;;;;;15.50;11.75;;;;;20.28;58.67;100048.09;5062005;28;45302;-59
2022/05/23 03:35:23;;;;;;;;;10.75;10.75;;;;;20.29;58.61;100025.69;5060974;28;45429;-59
2022/05/23 03:37:48;;;;;;;;;15.25;12.75;;;;;20.29;58.73;100009.66;5061142;28;45470;-58
2022/05/23 03:40:14;;;;;;;;;10.25;10.00;;;;;20.26;58.56;99999.31;5060970;28;45232;-60
2022/05/23 03:42:40;;;;;;;;;10.25;9.00;;;;;20.24;58.98;99993.31;5060987;28;45334;-59
2022/05/23 03:45:07;;;;;;;;;12.00;11.50;;;;;20.22;58.89;99992.66;5061173;28;45572;-59
2022/05/23 03:47:33;;;;;;;;;15.25;14.25;;;;;20.22;59.15;99986.44;5061098;28;45588;-59
2022/05/23 03:49:58;;;;;;;;;10.75;10.75;;;;;20.22;58.79;99989.09;5060985;28;45461;-58
2022/05/23 03:52:24;;;;;;;;;13.50;12.50;;;;;20.23;59.08;99996.16;5060900;28;45356;-59
2022/05/23 03:54:49;;;;;;;;;10.50;10.00;;;;;20.20;59.25;100008.00;5060322;28;45304;-59
2022/05/23 03:57:15;;;;;;;;;9.00;9.00;;;;;20.18;59.08;100009.19;5060887;28;45443;-59
2022/05/23 03:59:40;;;;;;;;;13.25;10.75;;;;;20.18;59.00;99996.66;5060981;28;45397;-59
2022/05/23 04:02:06;;;;;;;;;8.25;8.25;;;;;20.20;59.22;99999.16;5060788;28;45263;-59
2022/05/23 04:04:32;;;;;;;;;12.25;10.00;;;;;20.18;59.41;99999.34;5061158;28;45302;-59
2022/05/23 04:07:04;;;;;;;;;10.25;9.00;;;;;20.19;59.30;99998.31;5059554;28;45259;-59
2022/05/23 04:09:31;;;;;;;;;7.25;6.25;;;;;20.18;59.75;99983.28;5060738;28;45660;-58
2022/05/23 04:11:57;;;;;;;;;9.25;8.50;;;;;20.19;59.02;99978.78;5060470;28;45307;-58
2022/05/23 04:14:25;;;;;;;;;10.00;8.75;;;;;20.18;59.20;99975.25;5060796;28;45462;-58
2022/05/23 04:16:52;;;;;;;;;7.00;6.25;;;;;20.18;59.32;99963.72;5060684;28;45401;-58
2022/05/23 04:19:17;;;;;;;;;12.50;7.25;;;;;20.17;59.63;99946.84;5060603;28;45480;-58
2022/05/23 04:21:44;;;;;;;;;9.00;6.25;;;;;20.16;59.61;99950.53;5060353;28;45433;-58
2022/05/23 04:24:12;;;;;;;;;6.50;5.50;;;;;20.15;59.85;99966.75;5060959;28;45326;-58
2022/05/23 04:26:37;;;;;;;;;4.75;4.75;;;;;20.16;59.62;99958.56;5060529;28;45228;-58
2022/05/23 04:29:06;;;;;;;;;23.25;10.75;;;;;20.16;60.30;99950.53;5060450;28;45293;-58
2022/05/23 04:31:33;;;;;;;;;13.25;13.00;;;;;20.16;59.62;99939.84;5060610;28;45528;-58
2022/05/23 04:36:43;;;;;;;;;19.25;17.00;;;;;20.11;60.47;99898.56;5060294;28;45540;-58
2022/05/23 04:39:09;;;;;;;;;17.50;15.25;;;;;20.06;60.45;99899.94;5060303;28;45347;-58
2022/05/23 04:41:35;;;;;;;;;20.25;19.00;;;;;20.00;60.70;99897.94;5060373;28;45330;-58
2022/05/23 04:44:00;;;;;;;;;20.75;18.75;;;;;19.94;60.91;99905.81;5060446;28;45239;-58
2022/05/23 04:46:27;;;;;;;;;22.00;19.75;;;;;19.88;61.65;99928.72;5060603;28;45418;-58
2022/05/23 04:51:37;;;;;;;;;22.50;13.75;;;;;19.74;61.83;99908.03;5060236;28;45240;-58
2022/05/23 04:54:03;;;;;;;;;17.25;15.00;;;;;19.70;62.19;99912.06;5060082;28;45299;-58
2022/05/23 04:56:29;;;;;;;;;11.50;11.50;;;;;19.71;62.03;99927.91;5060223;28;45642;-58
2022/05/23 04:58:55;;;;;;;;;13.25;12.75;;;;;19.75;62.13;99931.09;5058658;28;45604;-58
2022/05/23 05:01:23;;;;;;;;;12.50;12.00;;;;;19.76;62.39;99914.88;5060247;28;45330;-59
2022/05/23 05:03:50;;;;;;;;;14.50;12.00;;;;;19.76;62.10;99925.56;5060076;28;45339;-58
2022/05/23 05:06:16;;;;;;;;;11.25;9.25;;;;;19.77;61.91;99923.75;5059948;28;45580;-58
2022/05/23 05:08:41;;;;;;;;;11.75;11.00;;;;;19.75;62.30;99918.56;5062996;28;45296;-58
2022/05/23 05:11:07;;;;;;;;;13.50;12.25;;;;;19.73;61.72;99907.19;5063391;28;45355;-58
2022/05/23 05:13:35;;;;;;;;;10.00;9.00;;;;;19.70;61.89;99906.72;5063562;28;45291;-58
2022/05/23 05:16:05;;;;;;;;;13.00;12.00;;;;;19.70;62.54;99904.88;5063343;28;45330;-58
2022/05/23 05:18:31;;;;;;;;;10.00;10.00;;;;;19.68;62.54;99890.03;5063152;28;45982;-58
2022/05/23 05:21:02;;;;;;;;;10.25;8.75;;;;;19.67;62.54;99874.97;5065081;28;45244;-58
2022/05/23 05:23:27;;;;;;;;;12.75;9.25;;;;;19.63;62.44;99892.34;5063347;28;45309;-58
2022/05/23 05:25:53;;;;;;;;;11.00;10.00;;;;;19.60;62.57;99872.16;5063198;28;45385;-58
2022/05/23 05:28:19;;;;;;;;;10.00;9.00;;;;;19.59;62.99;99867.84;5063052;28;45407;-58
2022/05/23 05:30:51;;;;;;;;;8.00;8.00;;;;;19.58;62.71;99887.50;5068569;28;45300;-58
2022/05/23 05:33:21;;;;;;;;;9.00;7.75;;;;;19.59;63.01;99875.84;5064315;28;45687;-58
2022/05/23 05:35:54;;;;;;;;;11.75;9.00;;;;;19.62;62.74;99859.47;5062960;28;45395;-58
2022/05/23 05:38:28;;;;;;;;;10.00;9.00;;;;;19.63;63.04;99863.81;5063180;28;45541;-58
2022/05/23 05:41:03;;;;;;;;;11.00;8.75;;;;;19.65;63.41;99852.94;5062535;28;45332;-55
2022/05/23 05:43:44;;;;;;;;;9.00;9.00;;;;;19.69;63.22;99841.75;5062979;28;45434;-58
2022/05/23 05:46:44;;;;;;;;;7.75;7.25;;;;;19.67;62.83;99869.63;5062890;28;45439;-58
2022/05/23 05:49:18;;;;;;;;;10.00;8.00;;;;;19.70;63.56;99894.19;5062374;28;45403;-58
2022/05/23 05:51:48;;;;;;;;;8.50;7.25;;;;;19.73;63.77;99891.16;5062609;28;45252;-58
2022/05/23 05:54:21;;;;;;;;;8.75;8.75;;;;;19.77;63.36;99903.19;5062758;28;45465;-58
2022/05/23 05:56:46;;;;;;;;;8.75;7.75;;;;;19.82;63.44;99891.97;5062694;28;45232;-58
2022/05/23 05:59:14;;;;;;;;;10.50;10.00;;;;;19.88;63.59;99880.59;5062836;28;46189;-58
2022/05/23 06:01:40;;;;;;;;;10.00;8.50;;;;;19.93;63.63;99875.59;5062585;28;45237;-58
2022/05/23 06:04:06;;;;;;;;;11.00;10.00;;;;;19.97;63.10;99863.53;5062594;28;45439;-58
2022/05/23 06:11:59;;;;;;;;;11.75;11.25;;;;;20.07;63.29;99876.72;5062296;28;45616;-58
2022/05/23 06:14:25;;;;;;;;;12.50;9.75;;;;;20.12;63.64;99881.53;5062801;28;45362;-59
2022/05/23 06:16:50;;;;;;;;;14.00;11.25;;;;;20.15;63.46;99887.38;5062311;28;45373;-58
2022/05/23 06:19:16;;;;;;;;;14.75;11.00;;;;;20.19;63.19;99887.84;5061098;28;46375;-58
2022/05/23 06:21:41;;;;;;;;;18.50;11.25;;;;;20.22;63.02;99892.84;5061085;28;45334;-58
2022/05/23 06:24:07;;;;;;;;;12.75;9.00;;;;;20.21;63.01;99889.31;5061851;28;45430;-58
2022/05/23 06:26:33;;;;;;;;;16.25;11.50;;;;;20.24;63.78;99889.00;5065161;28;45320;-58
2022/05/23 06:28:58;;;;;;;;;12.25;11.00;;;;;20.29;63.21;99877.75;5062281;28;45240;-58
2022/05/23 06:31:24;;;;;;;;;13.00;12.25;;;;;20.28;63.43;99865.41;5057806;28;45334;-58
2022/05/23 06:33:50;;;;;;;;;12.25;8.75;;;;;20.32;63.53;99850.69;5063600;28;45396;-58
2022/05/23 06:36:16;;;;;;;;;14.50;12.75;;;;;20.37;64.25;99848.28;5074064;28;45219;-58
2022/05/23 06:38:42;;;;;;;;;11.00;11.00;;;;;20.40;64.09;99850.63;5069192;28;45467;-58
2022/05/23 06:41:09;;;;;;;;;10.25;8.00;;;;;20.42;64.43;99850.47;5071478;28;45461;-58
2022/05/23 06:43:36;;;;;;;;;10.25;8.50;;;;;20.45;64.72;99852.81;5069741;28;45810;-58
2022/05/23 06:46:02;;;;;;;;;9.75;9.75;;;;;20.47;64.20;99845.44;5067607;28;45322;-57
2022/05/23 06:48:29;;;;;;;;;11.50;7.00;;;;;20.51;64.48;99825.34;5067339;28;45749;-58
2022/05/23 06:50:55;;;;;;;;;7.25;7.25;;;;;20.54;64.27;99814.31;5069465;27;45481;-58
2022/05/23 06:53:22;;;;;;;;;11.25;7.25;;;;;20.60;64.13;99832.31;5066485;28;45219;-58
2022/05/23 06:55:48;;;;;;;;;8.75;7.50;;;;;20.65;63.82;99831.78;5066713;28;45208;-58
2022/05/23 06:58:15;;;;;;;;;6.25;6.00;;;;;20.69;63.95;99817.84;5070261;28;45172;-59
2022/05/23 07:00:42;;;;;;;;;11.75;9.25;;;;;20.76;64.33;99820.66;5067867;28;45993;-59
2022/05/23 07:03:07;;;;;;;;;7.75;7.25;;;;;20.80;64.30;99817.44;5067248;28;45743;-59
2022/05/23 07:13:48;;;;;;;;;8.00;7.25;;;;;20.89;63.70;99804.81;5061640;28;45314;-58
2022/05/23 07:16:16;;;;;;;;;9.25;8.50;;;;;20.88;64.44;99804.00;5061371;28;45330;-57
2022/05/23 07:18:42;;;;;;;;;7.00;5.75;;;;;20.87;64.59;99813.03;5061456;28;45522;-58
2022/05/23 07:21:08;;;;;;;;;12.75;11.25;;;;;20.87;64.45;99821.06;5060837;28;45361;-58
2022/05/23 07:23:35;;;;;;;;;10.00;8.00;;;;;20.89;64.78;99813.69;5061685;28;45486;-58
2022/05/23 07:26:02;;;;;;;;;9.50;8.00;;;;;20.90;64.43;99815.34;5061413;28;45370;-58
2022/05/23 07:28:28;;;;;;;;;8.00;6.00;;;;;20.92;64.40;99813.31;5061236;28;45994;-58
2022/05/23 07:30:53;;;;;;;;;10.25;9.00;;;;;20.94;64.47;99825.72;5060264;28;45407;-59
2022/05/23 07:33:20;;;;;;;;;8.75;7.75;;;;;20.93;64.86;99824.84;5062411;28;45407;-58
2022/05/23 07:35:46;;;;;;;;;13.75;8.25;;;;;20.94;64.67;99815.00;5061086;28;45351;-58
2022/05/23 07:38:11;;;;;;;;;8.00;6.00;;;;;20.94;64.81;99828.41;5061097;28;45246;-58
2022/05/23 07:40:37;;;;;;;;;8.50;6.50;;;;;20.92;64.85;99831.22;5060861;28;45183;-58
2022/05/23 07:43:02;;;;;;;;;10.25;8.50;;;;;20.92;64.82;99836.59;5061614;28;45132;-58
2022/05/23 07:45:28;;;;;;;;;7.50;7.50;;;;;20.92;64.82;99841.94;5061142;28;45508;-58
2022/05/23 07:47:53;;;;;;;;;9.00;8.50;;;;;20.95;64.65;99824.69;5061352;28;45157;-58
2022/05/23 07:50:19;;;;;;;;;7.75;7.75;;;;;20.94;65.09;99837.25;5060871;28;45220;-58
2022/05/23 08:00:31;;;;;;;;;9.25;8.50;;;;;20.96;64.73;99831.72;5061416;28;45303;-58
2022/05/23 08:00:58;;;;;;;;;9.00;9.00;;;;;21.15;64.28;99753.53;5060945;28;45311;-58
2022/05/23 08:03:23;;;;;;;;;8.00;8.00;;;;;21.20;64.05;99737.75;5060981;28;45219;-58
2022/05/23 08:05:49;;;;;;;;;10.75;8.75;;;;;21.25;63.96;99738.03;5061076;28;45429;-59
2022/05/23 08:08:14;;;;;;;;;13.50;11.00;;;;;21.34;63.83;99753.03;5060546;28;45963;-58
2022/05/23 08:10:40;;;;;;;;;14.00;9.50;;;;;21.42;63.89;99762.84;5060862;28;45446;-58
2022/05/23 08:13:09;;;;;;;;;9.50;8.50;;;;;21.49;64.12;99763.75;5060824;28;45327;-58
2022/05/23 08:15:37;;;;;;;;;11.00;11.00;;;;;21.56;64.51;99775.38;5060932;28;45342;-58
2022/05/23 08:18:04;;;;;;;;;13.25;10.00;;;;;21.58;64.61;99770.69;5060358;28;45255;-58
2022/05/23 08:20:30;;;;;;;;;10.25;9.50;;;;;21.61;64.11;99777.50;5060346;28;45162;-58
2022/05/23 08:22:57;;;;;;;;;11.25;9.50;;;;;21.59;64.17;99763.47;5060718;28;45260;-58
2022/05/23 08:25:23;;;;;;;;;10.25;7.50;;;;;21.57;64.69;99768.19;5060481;28;45707;-58
2022/05/23 08:27:48;;;;;;;;;9.00;8.75;;;;;21.51;64.55;99774.28;5060432;28;45387;-58
2022/05/23 08:30:14;;;;;;;;;11.00;9.25;;;;;21.40;65.25;99788.97;5060461;28;45286;-58
2022/05/23 08:32:40;;;;;;;;;11.00;9.75;;;;;21.31;65.54;99806.13;5064979;28;45394;-58
2022/05/23 08:35:08;;;;;;;;;14.00;12.00;;;;;21.18;65.83;99801.41;5060621;28;45486;-58
2022/05/23 08:37:34;;;;;;;;;12.50;10.25;;;;;21.06;66.16;99810.88;5060245;28;45375;-58
2022/05/23 08:39:59;;;;;;;;;6.25;3.25;;;;;20.95;66.13;99798.75;5060403;28;45271;-58
2022/05/23 08:42:36;;;;;;;;;15.75;13.25;;;;;20.88;66.88;99804.00;5063338;28;45278;-58
2022/05/23 08:45:14;;;;;;;;;10.25;10.25;;;;;20.86;67.19;99792.66;5064156;28;45303;-58
2022/05/23 08:48:03;;;;;;;;;11.75;10.75;;;;;20.80;66.83;99797.88;5063890;28;46142;-58
2022/05/23 08:50:43;;;;;;;;;11.50;10.75;;;;;20.76;67.12;99794.72;5063685;28;45240;-58
2022/05/23 08:53:17;;;;;;;;;13.50;12.00;;;;;20.76;67.17;99801.91;5063720;28;45592;-58
2022/05/23 08:55:51;;;;;;;;;12.50;10.75;;;;;20.72;67.21;99814.00;5063711;28;45505;-58
2022/05/23 08:58:27;;;;;;;;;10.50;10.25;;;;;20.65;67.26;99811.22;5063474;28;45439;-58
2022/05/23 09:01:14;;;;;;;;;12.75;12.00;;;;;20.61;67.14;99808.03;5063680;28;45322;-58
2022/05/23 09:03:46;;;;;;;;;9.75;9.75;;;;;20.61;67.16;99804.53;5063956;28;45353;-58
2022/05/23 09:06:18;;;;;;;;;12.00;10.00;;;;;20.53;67.72;99809.94;5063552;28;45339;-58
2022/05/23 09:08:52;;;;;;;;;13.50;11.50;;;;;20.49;67.15;99809.47;5063739;28;45630;-58
2022/05/23 09:11:42;;;;;;;;;14.00;12.00;;;;;20.45;67.29;99813.50;5063357;28;45289;-58
2022/05/23 09:14:10;;;;;;;;;16.25;14.75;;;;;20.48;67.91;99806.97;5063513;28;45307;-58
2022/05/23 09:16:40;;;;;;;;;12.75;12.75;;;;;20.51;67.79;99815.47;5063669;28;45239;-58
2022/05/23 09:19:40;;;;;;;;;12.50;11.50;;;;;20.53;67.65;99826.81;5063291;28;46153;-58
2022/05/23 09:22:13;;;;;;;;;15.00;13.25;;;;;20.53;67.29;99813.44;5059064;28;45265;-57
2022/05/23 09:24:53;;;;;;;;;12.50;12.00;;;;;20.56;67.53;99805.09;5063393;28;45391;-58
2022/05/23 09:27:30;;;;;;;;;13.75;11.00;;;;;20.59;67.46;99802.03;5063407;28;45211;-58
2022/05/23 09:29:58;;;;;;;;;16.75;14.25;;;;;20.63;66.70;99807.88;5063096;28;45412;-58
2022/05/23 09:32:32;;;;;;;;;15.75;12.75;;;;;20.62;65.98;99807.06;5065504;28;45379;-58
2022/05/23 09:35:06;;;;;;;;;14.25;12.50;;;;;20.60;65.88;99806.38;5063014;28;45309;-58
2022/05/23 09:37:43;;;;;;;;;19.50;15.25;;;;;20.58;65.13;99802.22;5062933;28;45684;-58
2022/05/23 09:40:26;;;;;;;;;16.50;12.50;;;;;20.57;65.04;99801.41;5062917;28;46271;-58
2022/05/23 09:48:34;;;;;;;;;18.25;17.25;;;;;20.70;64.68;99798.13;5062784;28;45302;-57
2022/05/23 09:51:07;;;;;;;;;17.75;17.25;;;;;20.74;64.90;99793.25;5062743;28;46050;-58
2022/05/23 09:53:52;;;;;;;;;21.75;17.75;;;;;20.76;64.59;99785.84;5061901;28;45237;-57
2022/05/23 09:56:40;;;;;;;;;20.25;17.25;;;;;20.78;63.96;99781.19;5061520;28;45452;-58
2022/05/23 09:59:28;;;;;;;;;15.50;15.00;;;;;20.78;64.37;99778.50;5062961;28;45501;-57
2022/05/23 10:01:54;;;;;;;;;17.75;17.50;;;;;20.79;64.47;99780.16;5062727;28;46144;-57
2022/05/23 10:04:29;;;;;;;;;16.75;16.75;;;;;20.80;63.94;99787.16;5062993;28;45560;-57
2022/05/23 10:06:55;;;;;;;;;17.75;16.75;;;;;20.82;64.15;99788.66;5062722;28;45311;-58
2022/05/23 10:09:34;;;;;;;;;19.25;17.50;;;;;20.80;63.86;99803.22;5062456;28;45453;-58
2022/05/23 10:12:04;;;;;;;;;17.50;17.50;;;;;20.78;63.81;99795.38;5062556;28;45260;-57
2022/05/23 10:14:49;;;;;;;;;18.75;18.75;;;;;20.81;63.79;99792.34;5062176;28;45256;-57
2022/05/23 10:17:37;;;;;;;;;23.50;20.75;;;;;20.84;63.78;99781.25;5062521;28;45247;-58
2022/05/23 10:20:23;;;;;;;;;24.00;21.75;;;;;20.91;64.06;99792.09;5062212;28;45343;-57
2022/05/23 10:22:59;;;;;;;;;22.00;19.50;;;;;20.92;63.51;99785.72;5061788;28;45409;-57
2022/05/23 10:25:29;;;;;;;;;21.00;20.25;;;;;20.91;63.76;99787.56;5062253;28;45371;-58
2022/05/23 10:27:59;;;;;;;;;22.25;22.25;;;;;20.91;63.49;99790.25;5062265;28;45285;-57
2022/05/23 10:30:30;;;;;;;;;21.75;20.75;;;;;20.93;63.35;99792.72;5061945;28;45530;-58
2022/05/23 10:33:08;;;;;;;;;22.00;20.25;;;;;20.97;63.16;99795.91;5065879;28;45351;-58
2022/05/23 10:35:56;;;;;;;;;22.00;19.00;;;;;20.98;63.17;99794.88;5061853;28;45244;-57
2022/05/23 10:44:36;;;;;;;;;23.50;20.00;;;;;20.80;63.16;99788.00;5062070;28;45701;-58
2022/05/23 10:47:28;;;;;;;;;20.75;18.00;;;;;20.77;63.55;99785.66;5060764;28;45431;-59
2022/05/23 10:50:03;;;;;;;;;27.00;21.75;;;;;20.72;63.64;99782.72;5061688;28;45238;-58
2022/05/23 10:52:45;;;;;;;;;23.75;22.25;;;;;20.68;63.82;99789.44;5062398;28;45425;-59
2022/05/23 10:55:39;;;;;;;;;21.75;20.00;;;;;20.61;64.39;99783.94;5061661;28;45502;-57
2022/05/23 10:58:29;;;;;;;;;23.75;22.00;;;;;20.57;64.13;99788.00;5061760;28;45338;-57
2022/05/23 11:01:18;;;;;;;;;23.00;21.00;;;;;20.56;63.88;99794.38;5061831;28;45482;-57
2022/05/23 11:03:52;;;;;;;;;24.25;22.25;;;;;20.55;64.34;99790.03;5061947;28;45260;-58
2022/05/23 11:06:37;;;;;;;;;25.00;23.25;;;;;20.53;64.91;99783.19;5061286;28;45373;-58
2022/05/23 11:09:13;;;;;;;;;26.00;24.75;;;;;20.47;64.71;99778.56;5061614;28;45411;-58
2022/05/23 11:12:15;;;;;;;;;23.75;21.75;;;;;20.43;64.49;99778.03;5061557;28;45245;-58
2022/05/23 11:14:51;;;;;;;;;25.75;24.00;;;;;20.37;64.08;99792.13;5052578;28;45552;-58
2022/05/23 11:17:32;;;;;;;;;26.25;25.50;;;;;20.26;64.61;99800.56;5061410;28;45351;-58
2022/05/23 11:20:11;;;;;;;;;24.25;20.75;;;;;20.17;65.97;99813.16;5061359;28;45963;-58
2022/05/23 11:22:45;;;;;;;;;29.25;24.50;;;;;20.11;66.15;99808.50;5061556;28;45476;-58
2022/05/23 11:25:26;;;;;;;;;22.25;21.75;;;;;20.05;66.61;99803.84;5061595;28;45323;-58
2022/05/23 11:34:11;;;;;;;;;30.25;24.75;;;;;19.89;67.81;99794.06;5058686;28;45360;-58
2022/05/23 11:39:49;;;;;;;;;28.25;26.00;;;;;19.81;68.79;99791.41;5061389;28;45303;-59
2022/05/23 11:42:30;;;;;;;;;25.75;21.25;;;;;19.76;68.69;99799.16;5061112;28;45349;-59
2022/05/23 11:45:56;;;;;;;;;26.50;23.50;;;;;19.77;69.33;99800.81;5061245;28;45391;-58
2022/05/23 11:47:50;;;;;;;;;26.75;25.75;;;;;19.84;69.79;99806.31;5050937;28;45290;-59
2022/05/23 11:50:27;;;;;;;;;25.75;25.00;;;;;19.86;69.61;99799.75;5060855;28;45453;-58
2022/05/23 11:53:20;;;;;;;;;26.00;22.00;;;;;19.85;69.52;99803.44;5061044;28;45334;-58
2022/05/23 11:55:53;;;;;;;;;26.25;23.75;;;;;19.89;69.79;99803.91;5061285;28;45429;-59
2022/05/23 11:58:37;;;;;;;;;27.75;26.00;;;;;19.92;69.75;99800.91;5060956;28;45230;-59
2022/05/23 12:01:05;;;;;;;;;28.50;23.00;;;;;19.87;69.89;99804.09;5061116;28;45158;-59
2022/05/23 12:03:49;;;;;;;;;26.25;24.25;;;;;19.85;70.51;99814.13;5060856;28;45372;-59
2022/05/23 12:06:24;;;;;;;;;27.50;25.25;;;;;19.83;69.22;99812.63;5060917;28;45457;-59
2022/05/23 12:08:58;;;;;;;;;31.00;28.25;;;;;19.77;69.76;99808.81;5061060;28;45431;-59
2022/05/23 12:11:30;;;;;;;;;33.50;29.75;;;;;19.67;69.70;99816.19;5060606;28;46460;-59
2022/05/23 12:14:17;;;;;;;;;34.25;29.50;;;;;19.57;69.75;99819.06;5060780;28;45310;-59
2022/05/23 12:17:05;;;;;;;;;25.50;25.50;;;;;19.49;69.81;99835.91;5064801;28;45465;-58
2022/05/23 12:19:39;;;;;;;;;29.50;24.00;;;;;19.36;69.99;99829.44;5067336;28;45376;-59
2022/05/23 12:22:22;;;;;;;;;21.50;18.50;;;;;19.29;70.24;99831.97;5067456;28;45401;-59
2022/05/23 12:25:02;;;;;;;;;25.00;22.75;;;;;19.22;70.15;99829.13;5067795;28;45438;-59
2022/05/23 12:27:35;;;;;;;;;28.00;25.75;;;;;19.19;71.77;99829.44;5067313;28;45464;-58
2022/05/23 12:30:24;;;;;;;;;26.25;23.00;;;;;19.16;71.11;99843.13;5067555;28;45336;-58
2022/05/23 12:33:00;;;;;;;;;23.50;21.75;;;;;19.13;70.61;99848.81;5070324;28;46118;-59
2022/05/23 12:35:54;;;;;;;;;25.50;23.25;;;;;19.10;70.46;99845.66;5067043;28;45190;-59
2022/05/23 12:38:47;;;;;;;;;24.50;19.75;;;;;19.06;70.74;99850.50;5066603;28;45381;-59
2022/05/23 12:41:31;;;;;;;;;27.75;22.25;;;;;19.00;70.17;99853.81;5067130;28;45489;-59